Flight Track Log - Related Links

Times and Time Zones

All times are in EDT time to prevent confusion due to time zone crossing. See the SWA525 flight status page for this flight to view local times or setup timezone preferences in your user account.

Time Position Orientation Groundspeed Altitude Reporting Facility
EDT Latitude Longitude Course Direction KTS MPH feet Rate Location/Type
Thu 04:35:34 PM 32.8167 -96.8333 102° East 171 197 2,000  Level Dallas / Fort Worth TRACON
Thu 04:36:34 PM 32.7667 -96.7833 140° Southeast 225 259 4,900 2,600 Climbing Dallas / Fort Worth TRACON
Thu 04:37:34 PM 32.7500 -96.7000 103° East 267 307 7,200 2,430 Climbing Dallas / Fort Worth TRACON
Thu 04:38:35 PM 32.7500 -96.6167 90° East 306 352 9,800 2,297 Climbing Dallas / Fort Worth TRACON
Thu 04:39:42 PM 32.7550 -96.4994 87° East 322 371 12,100 2,268 Climbing Fort Worth Center
Thu 04:40:42 PM 32.7603 -96.3683 87° East 351 404 14,600 2,300 Climbing Fort Worth Center
Thu 04:41:00 PM 32.7718 -96.4364 102° East  Level FlightAware Approximate
Thu 04:41:42 PM 32.7486 -96.2550 97° East 373 429 16,700  Level Fort Worth Center
Thu 04:42:42 PM 32.7264 -96.1144 101° East 389 448 18,000 850 Climbing Fort Worth Center
Thu 04:43:42 PM 32.7064 -95.9914 101° East 412 474 18,400 1,850 Climbing Fort Worth Center
Thu 04:44:42 PM 32.6839 -95.8486 101° East 412 474 21,700 2,200 Climbing Fort Worth Center
Thu 04:45:42 PM 32.6636 -95.7281 101° East 413 475 22,800 1,350 Climbing Fort Worth Center
Thu 04:46:42 PM 32.6611 -95.5675 91° East 435 501 24,400 1,600 Climbing Fort Worth Center
Thu 04:47:42 PM 32.6714 -95.4194 85° East 445 512 26,000 1,250 Climbing Fort Worth Center
Thu 04:48:42 PM 32.6839 -95.2833 84° East 454 522 26,900 1,000 Climbing Fort Worth Center
Thu 04:49:42 PM 32.6894 -95.1253 88° East 461 531 28,000 1,200 Climbing Fort Worth Center
Thu 04:50:42 PM 32.6989 -94.9619 86° East 479 551 29,300 1,300 Climbing Fort Worth Center
Thu 04:51:42 PM 32.7039 -94.7989 88° East 486 559 30,600 1,300 Climbing Fort Worth Center
Thu 04:52:42 PM 32.6611 -94.6472 108° East 481 554 31,900 1,150 Climbing Fort Worth Center
Thu 04:53:42 PM 32.6075 -94.4886 112° Southeast 488 562 32,900 1,000 Climbing Fort Worth Center
Thu 04:54:42 PM 32.5578 -94.3397 112° Southeast 495 570 33,900 1,050 Climbing Fort Worth Center
Thu 04:55:42 PM 32.5061 -94.1914 112° Southeast 500 575 35,000 550 Climbing Fort Worth Center
Thu 04:56:42 PM 32.4542 -94.0381 112° Southeast 500 575 35,000  Level Fort Worth Center
Thu 04:57:42 PM 32.3997 -93.8828 113° Southeast 500 575 35,000  Level Fort Worth Center
Thu 04:58:42 PM 32.3472 -93.7272 112° Southeast 500 575 35,000  Level Fort Worth Center
Thu 05:01:00 PM 32.2888 -93.5612 113° Southeast  Level FlightAware Approximate
Thu 05:01:46 PM 32.1844 -93.2647 113° Southeast 505 581 35,000  Level Houston Center
Thu 05:02:48 PM 32.1311 -93.1128 112° Southeast 504 580 35,000  Level Houston Center
Thu 05:03:50 PM 32.0761 -92.9603 113° Southeast 503 579 35,000  Level Houston Center
Thu 05:04:52 PM 32.0203 -92.8064 113° Southeast 506 582 35,000  Level Houston Center
Thu 05:05:54 PM 31.9347 -92.6392 121° Southeast 499 574 35,000  Level Houston Center
Thu 05:06:56 PM 31.8300 -92.5425 142° Southeast 480 552 35,000  Level Houston Center
Thu 05:07:58 PM 31.7261 -92.4442 141° Southeast 477 549 35,000  Level Houston Center
Thu 05:09:00 PM 31.6228 -92.3475 141° Southeast 477 549 35,000  Level Houston Center
Thu 05:10:02 PM 31.5203 -92.2494 141° Southeast 475 547 35,000  Level Houston Center
Thu 05:11:05 PM 31.4161 -92.1522 141° Southeast 478 550 35,000  Level Houston Center
Thu 05:12:07 PM 31.2864 -92.0317 142° Southeast 479 551 35,000  Level Houston Center
Thu 05:13:09 PM 31.1817 -91.9342 141° Southeast 480 552 35,000 -726 Level Houston Center
Thu 05:14:11 PM 31.0783 -91.8383 142° Southeast 476 548 33,500 -2,226 Descending Houston Center
Thu 05:15:13 PM 30.9744 -91.7414 141° Southeast 476 548 30,400 -2,758 Descending Houston Center
Thu 05:16:15 PM 30.8706 -91.6453 142° Southeast 477 549 27,800 -2,371 Descending Houston Center
Thu 05:17:17 PM 30.7700 -91.5547 142° Southeast 464 534 25,500 -2,177 Descending Houston Center
Thu 05:18:19 PM 30.6753 -91.4667 141° Southeast 448 516 23,300 -2,274 Descending Houston Center
Thu 05:19:21 PM 30.5661 -91.3675 142° Southeast 425 489 20,800 -2,226 Descending Houston Center
Thu 05:20:23 PM 30.4778 -91.2864 142° Southeast 410 472 18,700 -1,742 Descending Houston Center
Thu 05:21:25 PM 30.3956 -91.2083 141° Southeast 389 448 17,200 -1,728 Descending Houston Center
Thu 05:22:28 PM 30.3125 -91.1328 142° Southeast 382 440 15,100 -2,016 Descending Houston Center
Thu 05:23:30 PM 30.2306 -91.0586 142° Southeast 377 434 13,000 -1,984 Descending Houston Center
Thu 05:24:32 PM 30.1378 -90.9711 141° Southeast 365 420 11,000 -1,403 Descending Houston Center
Thu 05:25:34 PM 30.1114 -90.8831 109° East 324 373 10,100 -677 Descending Houston Center
Thu 05:26:36 PM 30.1308 -90.7964 75° East 288 331 9,600 -677 Descending Houston Center
Thu 05:27:38 PM 30.1092 -90.7211 108° East 249 287 8,700 -871 Descending Houston Center
Thu 05:28:40 PM 30.0892 -90.6511 108° East 239 275 7,800 -919 Descending Houston Center
Thu 05:29:42 PM 30.0711 -90.5894 109° East 221 254 6,800 -1,306 Descending Houston Center
Thu 05:30:44 PM 30.0578 -90.5303 105° East 181 208 5,100 -1,455 Descending Houston Center
Thu 05:31:54 PM 30.0408 -90.4675 107° East 169 194 3,600 -1,296 Descending Houston Center
Thu 05:32:49 PM 30.0314 -90.4244 104° East 150 173 2,400 -992 Descending Houston Center
Thu 05:33:55 PM 30.0194 -90.3794 107° East 139 160 1,600 -694 Descending Houston Center
Thu 05:34:50 PM 30.0100 -90.3389 105° East 143 165 1,000 -600 Descending Houston Center
Thu 05:35:55 PM 30.0014 -90.2961 103° East 143 165 400 -554 Descending Houston Center
Thu 05:37:00 PM 29.9934 -90.2580 101° East  Level Estimated
Thu 05:44:00 PM 29.9934 -90.2580 101° East  Level Estimated
Thu 05:45:00 PM 29.9934 -90.2580 101° East  Level Estimated
Thu 05:46:00 PM 29.9934 -90.2580 101° East  Level Estimated

Login

Don't have an account? Register now (free) for customized features, flight alerts, and more!